Portada
METAR-TAF:

METAR-TAF

Aeroports :

Salalah, Oman

latitud: 17-02N, longitud: 054-05E, altitud: 20 m

Observació

L'informe es va fer fa 1 hora i 4 minuts, a les 06:50 UTC
Vent 15 kt del Sud
Temperatura 29°C
Humitat 70%
Pressió 1012 hPa
Visibilitat 10 km o més
Cel ennuvolat a una alçada de 2500 ft

METAR: OOSA 300650Z 18015KT 9999 BKN025 29/23 Q1012 NOSIG

Hora: 11:54 (07:54 UTC)

Pronòstic

L'informe es va fer fa 2 hores i 54 minuts, a les 05:00 UTC
Pronòstic vàlid del 30 a les 06 UTC al 31 a les 12 UTC
Vent 12 kt del Sud
Visibilitat 10 km o més
Núvols disperses a una alçada de 2500 ft
Evolucionant progressivament
l' 30 a les 20 UTC al 30 a les 22 UTC
Vent 3 kt amb direcció variable
Cel ennuvolat a una alçada de 2500 ft
Evolucionant progressivament
l' 31 a les 06 UTC al 31 a les 08 UTC
Vent 11 kt del Sud
Núvols disperses a una alçada de 2500 ft

TAF: OOSA 300500Z 3006/3112 18012KT 9999 SCT025 BECMG 3020/3022 VRB03KT BKN025 BECMG 3106/3108 19011KT SCT025

Observacions i pronòstics meteorològics de més de 4000 aeroports (METAR i TAF).

Les estacions disponibles són els punts grocs i vermells al mapa.

Posi el ratolí al punt desitjat per veure el nom de l'estació.

Feu clic per veure les observacions i els pronòstics meteorològics.

Per canviar el mapa: feu clic els botons verds amb una creu de color negre per apropar; al botó verd amb un guió per allunyar la imatge; o en les fletxes verdes per a mapes adjacents.


METAR-TAF: